Time;durP1;ratioP1;P1;durP2;ratioP2;P2;SDS_P1;SDS_P2;PMS_P1;PMS_P2;Temp;Humidity;BMP_temperature;BMP_pressure;BME280_temperature;BME280_humidity;BME280_pressure;Samples;Min_cycle;Max_cycle;Signal;HPM_P1;HPM_P2
2022/10/27 00:01:16;;;;;;;16.42;9.20;;;;;;;;;;5040161;28;20421;-87
2022/10/27 00:03:42;;;;;;;15.23;8.18;;;;;;;;;;5057916;28;20406;-89
2022/10/27 00:06:08;;;;;;;16.05;8.45;;;;;;;;;;5040780;28;20406;-88
2022/10/27 00:08:35;;;;;;;13.20;8.03;;;;;;;;;;5041033;28;20190;-89
2022/10/27 00:11:03;;;;;;;12.80;8.75;;;;;;;;;;5071613;28;20437;-76
2022/10/27 00:13:29;;;;;;;16.55;9.25;;;;;;;;;;5050872;28;20471;-76
2022/10/27 00:15:59;;;;;;;15.43;8.88;;;;;;;;;;5054141;28;20484;-76
2022/10/27 00:18:25;;;;;;;11.80;8.60;;;;;;;;;;5051312;28;20476;-76
2022/10/27 00:20:58;;;;;;;13.45;8.60;;;;;;;;;;5042595;28;20513;-76
2022/10/27 00:23:24;;;;;;;13.43;9.18;;;;;;;;;;5054222;28;20403;-76
2022/10/27 00:25:57;;;;;;;11.20;8.63;;;;;;;;;;5036981;28;20421;-76
2022/10/27 00:28:24;;;;;;;12.77;8.48;;;;;;;;;;5054150;28;20454;-76
2022/10/27 00:31:06;;;;;;;11.88;9.10;;;;;;;;;;5057283;28;20469;-79
2022/10/27 00:33:33;;;;;;;15.70;9.70;;;;;;;;;;5071737;28;20453;-79
2022/10/27 00:36:03;;;;;;;14.27;9.20;;;;;;;;;;5035482;28;20488;-79
2022/10/27 00:38:29;;;;;;;12.50;8.27;;;;;;;;;;5054344;28;20203;-78
2022/10/27 00:40:55;;;;;;;14.77;9.00;;;;;;;;;;5038314;28;20475;-78
2022/10/27 00:43:25;;;;;;;15.40;9.50;;;;;;;;;;5057418;28;20462;-78
2022/10/27 00:45:51;;;;;;;13.85;9.73;;;;;;;;;;5074565;28;20438;-78
2022/10/27 00:48:17;;;;;;;12.63;8.73;;;;;;;;;;5057499;28;20418;-78
2022/10/27 00:50:44;;;;;;;14.40;8.03;;;;;;;;;;5073263;28;20200;-78
2022/10/27 00:53:10;;;;;;;12.27;8.43;;;;;;;;;;5073923;28;20465;-78
2022/10/27 00:55:38;;;;;;;15.98;9.10;;;;;;;;;;5072740;28;20423;-78
2022/10/27 00:58:15;;;;;;;16.13;9.85;;;;;;;;;;5057008;28;20460;-79
2022/10/27 01:00:41;;;;;;;16.73;8.80;;;;;;;;;;5054119;28;20175;-79
2022/10/27 01:03:09;;;;;;;15.75;10.00;;;;;;;;;;5073120;28;20505;-79
2022/10/27 01:05:35;;;;;;;14.80;8.30;;;;;;;;;;5059224;28;20171;-89
2022/10/27 01:08:03;;;;;;;17.03;7.77;;;;;;;;;;5073444;28;20286;-76
2022/10/27 01:10:30;;;;;;;13.63;7.47;;;;;;;;;;5073953;28;20172;-76
2022/10/27 01:12:56;;;;;;;15.77;9.00;;;;;;;;;;5072436;28;20414;-78
2022/10/27 01:15:26;;;;;;;16.63;8.93;;;;;;;;;;5072301;28;20445;-79
2022/10/27 01:18:11;;;;;;;15.50;9.07;;;;;;;;;;5072805;28;20419;-79
2022/10/27 01:20:56;;;;;;;14.93;8.75;;;;;;;;;;5076569;28;20449;-79
2022/10/27 01:23:22;;;;;;;12.77;8.88;;;;;;;;;;5082917;28;20412;-79
2022/10/27 01:26:06;;;;;;;14.25;8.73;;;;;;;;;;5083275;28;20439;-79
2022/10/27 01:28:51;;;;;;;14.00;8.43;;;;;;;;;;5062305;28;20457;-80
2022/10/27 01:31:29;;;;;;;13.95;8.15;;;;;;;;;;5076322;28;20419;-79
2022/10/27 01:34:10;;;;;;;11.70;7.10;;;;;;;;;;5067014;28;20183;-79
2022/10/27 01:36:50;;;;;;;15.95;8.13;;;;;;;;;;5072945;28;20415;-79
2022/10/27 01:39:19;;;;;;;12.40;8.45;;;;;;;;;;5080668;28;20432;-79
2022/10/27 01:41:51;;;;;;;13.27;8.40;;;;;;;;;;5063892;28;20440;-79
2022/10/27 01:44:20;;;;;;;11.27;8.50;;;;;;;;;;5080230;28;20425;-79
2022/10/27 01:46:47;;;;;;;13.40;8.52;;;;;;;;;;5079067;28;20428;-79
2022/10/27 01:49:13;;;;;;;12.30;7.75;;;;;;;;;;5065021;28;20429;-79
2022/10/27 01:51:39;;;;;;;12.90;7.88;;;;;;;;;;5080875;28;20466;-79
2022/10/27 01:54:06;;;;;;;12.47;7.50;;;;;;;;;;5047347;28;20434;-79
2022/10/27 01:56:48;;;;;;;11.85;8.23;;;;;;;;;;5047792;28;20442;-79
2022/10/27 01:59:14;;;;;;;12.88;7.82;;;;;;;;;;5081236;28;20432;-75
2022/10/27 02:01:46;;;;;;;10.97;7.20;;;;;;;;;;5064913;28;20194;-75
2022/10/27 02:04:25;;;;;;;12.20;6.53;;;;;;;;;;5084834;28;20167;-76
2022/10/27 02:07:07;;;;;;;8.83;6.17;;;;;;;;;;5066389;28;20171;-75
2022/10/27 02:09:42;;;;;;;12.57;6.47;;;;;;;;;;5064755;28;20183;-76
2022/10/27 02:12:24;;;;;;;12.00;6.43;;;;;;;;;;5064603;28;20191;-79
2022/10/27 02:14:51;;;;;;;7.63;6.10;;;;;;;;;;5083135;28;20184;-79
2022/10/27 02:17:19;;;;;;;9.65;6.45;;;;;;;;;;5065510;28;20527;-79
2022/10/27 02:19:46;;;;;;;11.73;7.73;;;;;;;;;;5086760;28;20421;-79
2022/10/27 02:22:13;;;;;;;9.93;7.00;;;;;;;;;;5057410;28;20179;-79
2022/10/27 02:24:39;;;;;;;8.40;6.73;;;;;;;;;;5057480;28;20175;-79
2022/10/27 02:27:11;;;;;;;11.40;6.95;;;;;;;;;;5040800;28;20452;-79
2022/10/27 02:29:40;;;;;;;11.43;6.93;;;;;;;;;;5072372;28;20175;-79
2022/10/27 02:32:08;;;;;;;13.23;8.50;;;;;;;;;;5073937;28;20423;-79
2022/10/27 02:34:35;;;;;;;15.32;9.40;;;;;;;;;;5074178;28;20509;-79
2022/10/27 02:37:02;;;;;;;11.05;8.32;;;;;;;;;;5055852;28;20423;-79
2022/10/27 02:39:28;;;;;;;15.57;8.55;;;;;;;;;;5072255;28;20489;-79
2022/10/27 02:41:54;;;;;;;13.60;9.65;;;;;;;;;;5053108;28;20404;-76
2022/10/27 02:44:20;;;;;;;16.77;10.70;;;;;;;;;;5045248;28;20458;-89
2022/10/27 02:46:46;;;;;;;15.50;11.00;;;;;;;;;;5055081;28;20432;-89
2022/10/27 02:49:12;;;;;;;13.27;8.17;;;;;;;;;;5056226;28;20187;-89
2022/10/27 02:51:39;;;;;;;13.10;8.60;;;;;;;;;;5054566;28;20187;-89
2022/10/27 02:54:05;;;;;;;11.93;8.48;;;;;;;;;;5056075;28;20415;-89
2022/10/27 02:56:31;;;;;;;13.60;9.68;;;;;;;;;;5056859;28;20461;-89
2022/10/27 02:58:57;;;;;;;12.77;9.73;;;;;;;;;;5055743;28;20435;-89
2022/10/27 03:01:23;;;;;;;12.55;9.20;;;;;;;;;;5056273;28;20474;-89
2022/10/27 03:03:49;;;;;;;13.93;9.85;;;;;;;;;;5055726;28;20423;-89
2022/10/27 03:06:15;;;;;;;12.20;8.48;;;;;;;;;;5056595;28;20408;-89
2022/10/27 03:08:41;;;;;;;11.85;8.88;;;;;;;;;;5054957;28;20435;-89
2022/10/27 03:11:07;;;;;;;12.67;8.53;;;;;;;;;;5055059;28;20180;-89
2022/10/27 03:13:33;;;;;;;12.17;8.47;;;;;;;;;;5053707;28;20396;-81
2022/10/27 03:15:59;;;;;;;12.82;9.70;;;;;;;;;;5059460;28;20432;-79
2022/10/27 03:18:25;;;;;;;16.05;9.90;;;;;;;;;;5062331;28;20460;-76
2022/10/27 03:20:51;;;;;;;10.10;8.57;;;;;;;;;;5056390;28;20179;-76
2022/10/27 03:23:17;;;;;;;13.23;7.90;;;;;;;;;;5056121;28;20198;-76
2022/10/27 03:25:44;;;;;;;14.38;10.02;;;;;;;;;;5035655;28;20507;-76
2022/10/27 03:28:10;;;;;;;12.25;10.30;;;;;;;;;;5056693;28;20413;-76
2022/10/27 03:30:36;;;;;;;13.70;10.27;;;;;;;;;;5063470;28;20483;-76
2022/10/27 03:33:02;;;;;;;13.45;10.18;;;;;;;;;;5052296;28;20419;-76
2022/10/27 03:35:28;;;;;;;12.00;9.65;;;;;;;;;;5069120;28;20409;-89
2022/10/27 03:37:55;;;;;;;15.57;11.35;;;;;;;;;;5057489;28;20409;-89
2022/10/27 03:40:22;;;;;;;14.93;11.53;;;;;;;;;;5041678;28;20526;-89
2022/10/27 03:42:48;;;;;;;14.60;11.63;;;;;;;;;;5057730;28;20406;-88
2022/10/27 03:47:45;;;;;;;14.77;10.60;;;;;;;;;;5071214;28;20450;-78
2022/10/27 03:50:11;;;;;;;14.30;10.88;;;;;;;;;;5037400;28;20438;-78
2022/10/27 03:52:37;;;;;;;13.95;9.13;;;;;;;;;;5053482;28;20484;-79
2022/10/27 03:55:03;;;;;;;12.35;10.05;;;;;;;;;;5054303;28;20587;-77
2022/10/27 03:57:29;;;;;;;10.20;8.70;;;;;;;;;;5038466;28;20197;-79
2022/10/27 03:59:55;;;;;;;13.32;10.32;;;;;;;;;;5036757;28;20438;-79
2022/10/27 04:02:21;;;;;;;9.88;8.55;;;;;;;;;;5045735;28;20415;-79
2022/10/27 04:04:47;;;;;;;13.87;10.27;;;;;;;;;;5052972;28;20432;-79
2022/10/27 04:07:13;;;;;;;10.80;9.23;;;;;;;;;;5038496;28;20183;-89
2022/10/27 04:09:39;;;;;;;14.52;11.45;;;;;;;;;;5056108;28;20450;-89
2022/10/27 04:12:05;;;;;;;14.23;11.43;;;;;;;;;;5074821;28;20404;-87
2022/10/27 04:14:31;;;;;;;14.82;11.48;;;;;;;;;;5073233;28;20411;-89
2022/10/27 04:16:57;;;;;;;14.60;9.63;;;;;;;;;;5077195;28;20269;-89
2022/10/27 04:19:23;;;;;;;14.95;10.50;;;;;;;;;;5060268;28;20436;-89
2022/10/27 04:21:49;;;;;;;10.70;8.80;;;;;;;;;;5044540;28;20301;-89
2022/10/27 04:24:15;;;;;;;17.13;11.30;;;;;;;;;;5060184;28;20437;-79
2022/10/27 04:26:42;;;;;;;15.40;9.53;;;;;;;;;;5057676;28;20216;-79
2022/10/27 04:29:08;;;;;;;15.20;11.07;;;;;;;;;;5058267;28;20434;-79
2022/10/27 04:31:34;;;;;;;14.30;11.00;;;;;;;;;;5079248;28;20206;-79
2022/10/27 04:34:00;;;;;;;14.10;10.43;;;;;;;;;;5040929;28;20438;-79
2022/10/27 04:36:26;;;;;;;14.05;10.60;;;;;;;;;;5058825;28;20414;-79
2022/10/27 04:38:52;;;;;;;15.90;10.80;;;;;;;;;;5058974;28;20501;-79
2022/10/27 04:41:18;;;;;;;16.15;11.38;;;;;;;;;;5059824;28;20501;-89
2022/10/27 04:43:44;;;;;;;13.30;9.87;;;;;;;;;;5045608;28;20197;-89
2022/10/27 04:46:10;;;;;;;12.05;10.63;;;;;;;;;;5043448;28;20418;-89
2022/10/27 04:48:36;;;;;;;15.90;12.27;;;;;;;;;;5059715;28;20425;-89
2022/10/27 04:51:02;;;;;;;18.38;12.27;;;;;;;;;;5043135;28;20414;-88
2022/10/27 04:53:27;;;;;;;13.07;11.57;;;;;;;;;;5042627;28;20410;-88
2022/10/27 04:55:54;;;;;;;15.73;11.55;;;;;;;;;;5060455;28;20437;-89
2022/10/27 04:58:20;;;;;;;14.93;11.65;;;;;;;;;;5045235;28;20417;-88
2022/10/27 05:00:47;;;;;;;16.25;11.98;;;;;;;;;;5061546;28;20434;-88
2022/10/27 05:03:14;;;;;;;13.65;11.32;;;;;;;;;;5045901;28;20434;-89
2022/10/27 05:05:40;;;;;;;13.50;11.98;;;;;;;;;;5061113;28;20402;-89
2022/10/27 05:08:06;;;;;;;13.90;8.97;;;;;;;;;;5044214;28;20266;-89
2022/10/27 05:10:33;;;;;;;16.80;12.18;;;;;;;;;;5041679;28;20437;-89
2022/10/27 05:12:59;;;;;;;12.45;11.07;;;;;;;;;;5058731;28;20410;-89
2022/10/27 05:15:25;;;;;;;12.73;9.43;;;;;;;;;;5059281;28;20179;-79
2022/10/27 05:17:51;;;;;;;15.35;10.50;;;;;;;;;;5058795;28;20402;-79
2022/10/27 05:20:18;;;;;;;15.07;9.70;;;;;;;;;;5063540;28;20210;-79
2022/10/27 05:22:44;;;;;;;13.63;9.88;;;;;;;;;;5055282;28;20428;-79
2022/10/27 05:25:10;;;;;;;12.93;9.43;;;;;;;;;;5058326;28;20278;-79
2022/10/27 05:27:37;;;;;;;12.70;9.10;;;;;;;;;;5058693;28;20184;-79
2022/10/27 05:30:07;;;;;;;12.67;9.50;;;;;;;;;;5058997;28;20183;-79
2022/10/27 05:32:33;;;;;;;11.00;9.00;;;;;;;;;;5059637;28;20182;-88
2022/10/27 05:34:59;;;;;;;17.10;10.25;;;;;;;;;;5060396;28;20410;-88
2022/10/27 05:37:25;;;;;;;14.88;11.90;;;;;;;;;;5043842;28;20438;-88
2022/10/27 05:39:51;;;;;;;15.85;11.70;;;;;;;;;;5059222;28;20438;-88
2022/10/27 05:42:17;;;;;;;13.10;10.53;;;;;;;;;;5042386;28;20214;-88
2022/10/27 05:44:43;;;;;;;13.27;9.87;;;;;;;;;;5058874;28;20182;-90
2022/10/27 05:47:09;;;;;;;14.18;10.30;;;;;;;;;;5044159;28;20454;-80
2022/10/27 05:49:35;;;;;;;18.48;12.73;;;;;;;;;;5044558;28;20509;-79
2022/10/27 05:52:03;;;;;;;18.25;13.48;;;;;;;;;;5058329;28;20441;-80
2022/10/27 05:54:29;;;;;;;14.98;10.32;;;;;;;;;;5060116;28;20427;-79
2022/10/27 05:56:55;;;;;;;15.77;10.20;;;;;;;;;;5076807;28;20187;-80
2022/10/27 05:59:21;;;;;;;14.03;10.60;;;;;;;;;;5042875;28;20227;-80
2022/10/27 06:01:47;;;;;;;11.20;9.30;;;;;;;;;;5057912;28;20183;-80
2022/10/27 06:04:13;;;;;;;16.95;10.80;;;;;;;;;;5040047;28;20425;-79
2022/10/27 06:06:39;;;;;;;13.73;10.73;;;;;;;;;;5073856;28;20509;-79
2022/10/27 06:09:05;;;;;;;18.58;10.90;;;;;;;;;;5054605;28;20457;-80
2022/10/27 06:11:31;;;;;;;17.60;11.13;;;;;;;;;;5037642;28;20527;-79
2022/10/27 06:13:57;;;;;;;12.17;9.10;;;;;;;;;;5040414;28;20191;-79
2022/10/27 06:16:26;;;;;;;13.57;9.30;;;;;;;;;;5057224;28;20428;-79
2022/10/27 06:18:53;;;;;;;10.30;8.50;;;;;;;;;;5056925;28;20217;-79
2022/10/27 06:21:19;;;;;;;15.52;10.23;;;;;;;;;;5074402;28;20418;-89
2022/10/27 06:23:48;;;;;;;17.10;11.65;;;;;;;;;;5075054;28;20422;-88
2022/10/27 06:26:15;;;;;;;13.73;9.50;;;;;;;;;;5059572;28;20171;-89
2022/10/27 06:28:41;;;;;;;11.47;9.17;;;;;;;;;;5058030;28;20186;-89
2022/10/27 06:31:07;;;;;;;12.60;8.83;;;;;;;;;;5045071;28;20190;-88
2022/10/27 06:33:33;;;;;;;16.67;9.60;;;;;;;;;;5044625;28;20187;-89
2022/10/27 06:35:59;;;;;;;15.70;12.03;;;;;;;;;;5043615;28;20414;-88
2022/10/27 06:38:25;;;;;;;15.63;11.13;;;;;;;;;;5057634;28;20410;-76
2022/10/27 06:40:51;;;;;;;14.20;10.52;;;;;;;;;;5040108;28;20426;-76
2022/10/27 06:43:17;;;;;;;16.20;12.38;;;;;;;;;;5039572;28;20412;-76
2022/10/27 06:45:46;;;;;;;21.60;12.40;;;;;;;;;;5056924;28;20434;-77
2022/10/27 06:48:12;;;;;;;19.15;12.70;;;;;;;;;;5056976;28;20421;-77
2022/10/27 06:50:38;;;;;;;14.67;10.60;;;;;;;;;;5040478;28;20179;-76
2022/10/27 06:53:04;;;;;;;17.67;12.25;;;;;;;;;;5042089;28;20411;-76
2022/10/27 06:55:30;;;;;;;18.73;10.70;;;;;;;;;;5057304;28;20249;-79
2022/10/27 06:57:56;;;;;;;15.70;10.70;;;;;;;;;;5053850;28;20194;-81
2022/10/27 07:00:23;;;;;;;17.35;12.13;;;;;;;;;;5039745;28;20445;-80
2022/10/27 07:02:49;;;;;;;16.02;12.82;;;;;;;;;;5055347;28;20446;-79
2022/10/27 07:05:15;;;;;;;16.75;11.70;;;;;;;;;;5074077;28;20486;-79
2022/10/27 07:07:45;;;;;;;18.30;12.90;;;;;;;;;;5064792;28;20419;-80
2022/10/27 07:10:11;;;;;;;14.27;11.02;;;;;;;;;;5056523;28;20487;-81
2022/10/27 07:12:37;;;;;;;15.67;10.87;;;;;;;;;;5039470;28;20199;-81
2022/10/27 07:15:03;;;;;;;18.13;11.20;;;;;;;;;;5056988;28;20376;-80
2022/10/27 07:17:29;;;;;;;21.73;13.13;;;;;;;;;;5055871;28;20490;-80
2022/10/27 07:19:55;;;;;;;21.25;13.38;;;;;;;;;;5037652;28;20427;-80
2022/10/27 07:22:21;;;;;;;15.43;12.50;;;;;;;;;;5038997;28;20948;-77
2022/10/27 07:24:47;;;;;;;15.37;11.00;;;;;;;;;;5055649;28;20184;-89
2022/10/27 07:27:13;;;;;;;17.00;10.47;;;;;;;;;;5058479;28;20336;-77
2022/10/27 07:29:39;;;;;;;17.90;11.27;;;;;;;;;;5056215;28;20183;-77
2022/10/27 07:32:05;;;;;;;20.00;11.20;;;;;;;;;;5039293;28;20191;-78
2022/10/27 07:34:31;;;;;;;15.57;10.57;;;;;;;;;;5053119;28;20187;-77
2022/10/27 07:36:57;;;;;;;18.60;10.50;;;;;;;;;;5041234;28;20190;-77
2022/10/27 07:39:23;;;;;;;17.27;10.37;;;;;;;;;;5050480;28;20214;-77
2022/10/27 07:41:49;;;;;;;15.00;9.53;;;;;;;;;;5035636;28;20270;-75
2022/10/27 07:44:15;;;;;;;17.33;10.03;;;;;;;;;;5053586;28;20216;-77
2022/10/27 07:46:41;;;;;;;14.67;9.33;;;;;;;;;;5044425;28;20310;-77
2022/10/27 07:49:07;;;;;;;15.10;9.30;;;;;;;;;;5040048;28;20179;-77
2022/10/27 07:51:33;;;;;;;13.67;9.50;;;;;;;;;;5060697;28;20198;-76
2022/10/27 07:53:59;;;;;;;17.53;10.40;;;;;;;;;;5043719;28;20187;-76
2022/10/27 07:56:25;;;;;;;12.37;9.93;;;;;;;;;;5060001;28;20213;-79
2022/10/27 07:58:51;;;;;;;14.17;9.83;;;;;;;;;;5050253;28;20234;-80
2022/10/27 08:01:17;;;;;;;15.70;9.90;;;;;;;;;;5077842;28;20254;-77
2022/10/27 08:03:43;;;;;;;11.47;8.83;;;;;;;;;;5049834;28;20206;-77
2022/10/27 08:06:09;;;;;;;17.20;8.40;;;;;;;;;;5059794;28;20187;-77
2022/10/27 08:08:35;;;;;;;15.87;8.67;;;;;;;;;;5060061;28;20210;-76
2022/10/27 08:11:01;;;;;;;12.97;8.50;;;;;;;;;;5060029;28;20186;-76
2022/10/27 08:13:27;;;;;;;17.50;7.50;;;;;;;;;;5073025;28;20267;-76
2022/10/27 08:15:56;;;;;;;13.43;6.90;;;;;;;;;;5043429;28;20183;-77
2022/10/27 08:18:22;;;;;;;11.03;5.90;;;;;;;;;;5059840;28;20183;-80
2022/10/27 08:20:48;;;;;;;9.83;6.50;;;;;;;;;;5058686;28;20278;-80
2022/10/27 08:23:15;;;;;;;9.07;5.97;;;;;;;;;;5043975;28;20190;-89
2022/10/27 08:25:42;;;;;;;10.20;5.60;;;;;;;;;;5060843;28;20179;-89
2022/10/27 08:28:09;;;;;;;10.13;5.40;;;;;;;;;;5078236;28;20176;-89
2022/10/27 08:30:35;;;;;;;8.93;5.40;;;;;;;;;;5059924;28;20190;-89
2022/10/27 08:33:02;;;;;;;9.10;5.33;;;;;;;;;;5044108;28;20178;-81
2022/10/27 08:35:30;;;;;;;7.57;4.60;;;;;;;;;;5061761;28;20190;-79
2022/10/27 08:38:00;;;;;;;7.07;4.80;;;;;;;;;;5041810;28;20198;-79
2022/10/27 08:40:35;;;;;;;10.63;4.70;;;;;;;;;;5042730;28;20211;-80
2022/10/27 08:43:20;;;;;;;8.73;4.53;;;;;;;;;;5059141;28;20214;-81
2022/10/27 08:45:52;;;;;;;12.37;4.83;;;;;;;;;;5075815;28;20239;-80
2022/10/27 08:48:23;;;;;;;7.80;4.70;;;;;;;;;;5092155;28;20178;-81
2022/10/27 08:50:49;;;;;;;6.50;4.27;;;;;;;;;;5064621;28;20184;-89
2022/10/27 08:53:18;;;;;;;8.17;4.60;;;;;;;;;;5068321;28;20180;-89
2022/10/27 08:55:44;;;;;;;9.50;4.40;;;;;;;;;;5079880;28;20206;-90
2022/10/27 08:58:18;;;;;;;9.97;4.53;;;;;;;;;;5060938;28;20179;-90
2022/10/27 09:00:58;;;;;;;8.20;4.20;;;;;;;;;;5078998;28;20182;-90
2022/10/27 09:03:27;;;;;;;7.37;4.17;;;;;;;;;;5062534;28;20206;-90
2022/10/27 09:05:58;;;;;;;6.27;4.10;;;;;;;;;;5059481;28;20171;-89
2022/10/27 09:08:37;;;;;;;6.33;3.67;;;;;;;;;;5058339;28;20190;-81
2022/10/27 09:11:22;;;;;;;8.13;3.60;;;;;;;;;;5055670;28;20183;-81
2022/10/27 09:14:11;;;;;;;8.80;4.10;;;;;;;;;;5074224;28;20179;-81
2022/10/27 09:16:50;;;;;;;6.30;3.47;;;;;;;;;;5050644;28;20187;-80
2022/10/27 09:19:19;;;;;;;11.70;4.27;;;;;;;;;;5068181;28;20245;-81
2022/10/27 09:21:45;;;;;;;8.87;3.63;;;;;;;;;;5058044;28;20183;-81
2022/10/27 09:24:12;;;;;;;6.53;3.30;;;;;;;;;;5057805;28;20199;-81
2022/10/27 09:26:39;;;;;;;6.27;3.47;;;;;;;;;;5057474;28;20183;-77
2022/10/27 09:29:15;;;;;;;5.63;3.50;;;;;;;;;;5057105;28;20191;-77
2022/10/27 09:31:48;;;;;;;6.37;3.70;;;;;;;;;;5057786;28;20191;-77
2022/10/27 09:34:35;;;;;;;5.87;2.90;;;;;;;;;;5075061;28;20273;-77
2022/10/27 09:37:01;;;;;;;4.53;2.80;;;;;;;;;;5050027;28;20194;-77
2022/10/27 09:39:27;;;;;;;4.87;2.63;;;;;;;;;;5055837;28;20221;-78
2022/10/27 09:41:53;;;;;;;5.00;2.80;;;;;;;;;;5057604;28;20191;-77
2022/10/27 09:44:21;;;;;;;7.60;3.00;;;;;;;;;;5056948;28;20198;-77
2022/10/27 09:46:52;;;;;;;7.90;2.87;;;;;;;;;;5056286;28;20255;-77
2022/10/27 09:49:19;;;;;;;8.17;3.27;;;;;;;;;;5072685;28;20223;-77
2022/10/27 09:51:51;;;;;;;9.47;3.10;;;;;;;;;;5072798;28;20198;-77
2022/10/27 09:54:34;;;;;;;8.73;2.93;;;;;;;;;;5057088;28;20186;-78
2022/10/27 09:57:27;;;;;;;5.97;3.23;;;;;;;;;;5054052;28;20230;-77
2022/10/27 09:59:56;;;;;;;7.33;3.27;;;;;;;;;;5059168;28;20215;-81
2022/10/27 10:02:25;;;;;;;7.33;3.20;;;;;;;;;;5075245;28;20267;-80
2022/10/27 10:04:52;;;;;;;8.50;3.43;;;;;;;;;;5072991;28;20183;-80
2022/10/27 10:07:32;;;;;;;8.63;2.97;;;;;;;;;;5073817;28;20190;-80
2022/10/27 10:10:17;;;;;;;7.07;2.90;;;;;;;;;;5056972;28;20210;-80
2022/10/27 10:12:43;;;;;;;6.63;2.80;;;;;;;;;;5055697;28;20198;-80
2022/10/27 10:15:09;;;;;;;9.53;3.00;;;;;;;;;;5054730;28;20176;-80
2022/10/27 10:17:36;;;;;;;4.87;2.33;;;;;;;;;;5057439;28;20194;-80
2022/10/27 10:20:02;;;;;;;5.70;2.97;;;;;;;;;;5039210;28;20242;-80
2022/10/27 10:22:29;;;;;;;5.53;2.47;;;;;;;;;;5074135;28;20205;-81
2022/10/27 10:24:56;;;;;;;7.73;2.70;;;;;;;;;;5074923;28;20262;-82
2022/10/27 10:27:34;;;;;;;5.43;2.30;;;;;;;;;;5056677;28;20186;-82
2022/10/27 10:30:04;;;;;;;5.63;2.20;;;;;;;;;;5074663;28;20186;-82
2022/10/27 10:32:32;;;;;;;4.17;1.87;;;;;;;;;;5054502;28;20254;-80
2022/10/27 10:34:59;;;;;;;6.63;2.40;;;;;;;;;;5074581;28;20179;-81
2022/10/27 10:37:28;;;;;;;3.53;2.00;;;;;;;;;;5040299;28;20191;-81
2022/10/27 10:39:54;;;;;;;5.73;2.20;;;;;;;;;;5056316;28;20199;-81
2022/10/27 10:42:20;;;;;;;4.13;2.20;;;;;;;;;;5038840;28;20182;-81
2022/10/27 10:44:46;;;;;;;6.67;2.07;;;;;;;;;;5072898;28;20236;-81
2022/10/27 10:47:29;;;;;;;4.38;2.60;;;;;;;;;;5038039;28;20469;-81
2022/10/27 10:49:58;;;;;;;5.93;2.40;;;;;;;;;;5061508;28;20186;-81
2022/10/27 10:52:29;;;;;;;3.77;1.90;;;;;;;;;;5062461;28;20185;-81
2022/10/27 10:54:55;;;;;;;4.40;1.80;;;;;;;;;;5056706;28;20175;-80
2022/10/27 10:57:21;;;;;;;4.60;2.10;;;;;;;;;;5054318;28;20194;-80
2022/10/27 10:59:49;;;;;;;3.07;1.70;;;;;;;;;;5054662;28;20207;-80
2022/10/27 11:02:15;;;;;;;4.37;2.00;;;;;;;;;;5056717;28;20179;-80
2022/10/27 11:04:43;;;;;;;4.53;1.83;;;;;;;;;;5072680;28;20175;-90
2022/10/27 11:07:15;;;;;;;155.00;13.13;;;;;;;;;;5056604;28;20183;-91
2022/10/27 11:09:48;;;;;;;15.70;3.33;;;;;;;;;;5075016;28;20199;-91
2022/10/27 11:12:21;;;;;;;5.67;1.77;;;;;;;;;;5072437;28;20234;-81
2022/10/27 11:14:49;;;;;;;4.97;2.10;;;;;;;;;;5073050;28;20186;-81
2022/10/27 11:17:15;;;;;;;7.17;2.67;;;;;;;;;;5055814;28;20206;-81
2022/10/27 11:19:43;;;;;;;7.67;2.40;;;;;;;;;;5052697;28;20211;-81
2022/10/27 11:22:19;;;;;;;3.00;2.10;;;;;;;;;;5056638;28;20210;-90
2022/10/27 11:25:02;;;;;;;4.13;1.70;;;;;;;;;;5041050;28;20193;-90
2022/10/27 11:27:53;;;;;;;4.93;1.90;;;;;;;;;;5056681;28;20179;-90
2022/10/27 11:30:21;;;;;;;4.70;1.80;;;;;;;;;;5074515;28;20187;-90
2022/10/27 11:33:05;;;;;;;4.90;2.07;;;;;;;;;;5073214;28;20424;-89
2022/10/27 11:35:35;;;;;;;5.57;1.90;;;;;;;;;;5059074;28;20434;-89
2022/10/27 11:38:04;;;;;;;5.30;2.13;;;;;;;;;;5073983;28;20229;-80
2022/10/27 11:40:42;;;;;;;5.30;1.87;;;;;;;;;;5054749;28;20298;-79
2022/10/27 11:43:20;;;;;;;4.97;2.33;;;;;;;;;;5076052;28;20266;-79
2022/10/27 11:45:46;;;;;;;4.37;2.20;;;;;;;;;;5071458;28;20224;-79
2022/10/27 11:48:14;;;;;;;5.47;2.23;;;;;;;;;;5055734;28;20262;-79
2022/10/27 11:50:48;;;;;;;3.90;2.13;;;;;;;;;;5073775;28;20179;-79
2022/10/27 11:53:15;;;;;;;4.80;2.20;;;;;;;;;;5072588;28;20277;-79
2022/10/27 11:55:41;;;;;;;6.60;2.00;;;;;;;;;;5058614;28;20277;-81
2022/10/27 11:58:07;;;;;;;6.33;2.10;;;;;;;;;;5055556;28;20206;-81
2022/10/27 12:00:44;;;;;;;7.70;2.10;;;;;;;;;;5052694;28;20230;-81
2022/10/27 12:03:17;;;;;;;5.37;2.10;;;;;;;;;;5073267;28;20187;-81
2022/10/27 12:05:52;;;;;;;5.03;2.33;;;;;;;;;;5065777;28;20183;-82
2022/10/27 12:08:37;;;;;;;8.23;2.10;;;;;;;;;;5054377;28;20214;-81
2022/10/27 12:14:32;;;;;;;5.30;2.30;;;;;;;;;;5048442;28;20270;-80
2022/10/27 12:17:34;;;;;;;5.60;1.90;;;;;;;;;;5066116;28;20183;-80
2022/10/27 12:20:18;;;;;;;4.60;2.07;;;;;;;;;;5035463;28;20218;-80
2022/10/27 12:22:59;;;;;;;4.17;1.80;;;;;;;;;;5051343;28;20218;-80
2022/10/27 12:25:35;;;;;;;7.00;2.25;;;;;;;;;;5042374;28;20419;-81
2022/10/27 12:28:02;;;;;;;3.70;2.10;;;;;;;;;;5056162;28;20179;-77
2022/10/27 12:30:28;;;;;;;4.33;2.20;;;;;;;;;;5071692;28;20175;-78
2022/10/27 12:33:15;;;;;;;5.83;2.03;;;;;;;;;;5034655;28;20272;-77
2022/10/27 12:36:04;;;;;;;4.63;2.20;;;;;;;;;;5045166;28;20183;-76
2022/10/27 12:38:39;;;;;;;6.20;2.20;;;;;;;;;;5058201;28;20184;-77
2022/10/27 12:41:24;;;;;;;6.23;2.33;;;;;;;;;;5048675;28;20236;-77
2022/10/27 12:43:50;;;;;;;7.00;2.10;;;;;;;;;;5058822;28;20178;-90
2022/10/27 12:46:25;;;;;;;5.07;2.23;;;;;;;;;;5077828;28;20306;-91
2022/10/27 12:49:04;;;;;;;5.03;2.20;;;;;;;;;;5078434;28;20172;-81
2022/10/27 12:52:02;;;;;;;6.23;2.50;;;;;;;;;;5057348;28;20185;-81
2022/10/27 12:54:36;;;;;;;3.93;2.10;;;;;;;;;;5034631;28;20191;-81
2022/10/27 12:57:14;;;;;;;4.43;2.30;;;;;;;;;;5058779;28;20195;-81
2022/10/27 12:59:43;;;;;;;7.87;2.50;;;;;;;;;;5055375;28;20215;-81
2022/10/27 13:02:10;;;;;;;6.23;2.73;;;;;;;;;;5074323;28;20213;-76
2022/10/27 13:04:43;;;;;;;5.67;2.60;;;;;;;;;;5059979;28;20182;-76
2022/10/27 13:07:30;;;;;;;7.93;2.20;;;;;;;;;;5075412;28;20236;-76
2022/10/27 13:10:02;;;;;;;4.80;1.70;;;;;;;;;;5055993;28;20255;-76
2022/10/27 13:12:51;;;;;;;5.63;2.33;;;;;;;;;;5064026;28;20176;-76
2022/10/27 13:15:36;;;;;;;3.53;1.90;;;;;;;;;;5037814;28;20208;-77
2022/10/27 13:18:05;;;;;;;5.83;2.20;;;;;;;;;;5076767;28;20188;-90
2022/10/27 13:20:34;;;;;;;6.47;2.40;;;;;;;;;;5060308;28;20211;-90
2022/10/27 13:23:32;;;;;;;7.33;2.50;;;;;;;;;;5059887;28;20251;-91
2022/10/27 13:26:19;;;;;;;5.90;2.37;;;;;;;;;;5058839;28;20183;-90
2022/10/27 13:28:58;;;;;;;7.17;2.27;;;;;;;;;;5076845;28;20248;-89
2022/10/27 13:31:25;;;;;;;5.83;2.40;;;;;;;;;;5058802;28;20187;-91
2022/10/27 13:34:03;;;;;;;5.57;2.10;;;;;;;;;;5063375;28;20183;-77
2022/10/27 13:36:29;;;;;;;10.77;2.53;;;;;;;;;;5075566;28;20189;-77
2022/10/27 13:39:13;;;;;;;4.83;1.93;;;;;;;;;;5057362;28;20256;-77
2022/10/27 13:41:49;;;;;;;4.87;2.10;;;;;;;;;;5079666;28;20266;-77
2022/10/27 13:44:46;;;;;;;8.57;2.33;;;;;;;;;;5073925;28;20218;-76
2022/10/27 13:47:16;;;;;;;5.30;2.10;;;;;;;;;;5051315;28;20225;-76
2022/10/27 13:49:42;;;;;;;5.80;2.50;;;;;;;;;;5056558;28;20278;-76
2022/10/27 13:52:15;;;;;;;4.03;2.30;;;;;;;;;;5063437;28;20278;-77
2022/10/27 13:54:53;;;;;;;5.57;3.00;;;;;;;;;;5056113;28;20191;-77
2022/10/27 13:57:25;;;;;;;8.53;2.67;;;;;;;;;;5068545;28;20202;-76
2022/10/27 13:59:53;;;;;;;7.03;2.70;;;;;;;;;;5069492;28;20294;-76
2022/10/27 14:02:24;;;;;;;6.83;3.03;;;;;;;;;;5053182;28;20245;-77
2022/10/27 14:04:56;;;;;;;6.03;2.80;;;;;;;;;;5071893;28;20179;-78
2022/10/27 14:07:22;;;;;;;5.55;3.20;;;;;;;;;;5071157;28;20432;-77
2022/10/27 14:09:49;;;;;;;11.20;3.23;;;;;;;;;;5042471;28;20187;-80
2022/10/27 14:12:15;;;;;;;7.32;3.28;;;;;;;;;;5039033;28;20551;-81
2022/10/27 14:14:41;;;;;;;8.70;3.77;;;;;;;;;;5057065;28;20191;-81
2022/10/27 14:17:19;;;;;;;4.67;3.00;;;;;;;;;;5038716;28;20187;-80
2022/10/27 14:19:56;;;;;;;9.03;3.10;;;;;;;;;;5069269;28;20248;-80
2022/10/27 14:22:29;;;;;;;6.17;2.60;;;;;;;;;;5057227;28;20186;-80
2022/10/27 14:24:57;;;;;;;7.60;2.73;;;;;;;;;;5074338;28;20183;-80
2022/10/27 14:27:23;;;;;;;7.27;2.87;;;;;;;;;;5068697;28;20207;-81
2022/10/27 14:29:49;;;;;;;7.23;2.93;;;;;;;;;;5067873;28;20183;-81
2022/10/27 14:32:24;;;;;;;8.00;3.37;;;;;;;;;;5075108;28;20183;-81
2022/10/27 14:34:50;;;;;;;6.37;2.60;;;;;;;;;;5071360;28;20302;-82
2022/10/27 14:37:28;;;;;;;8.13;2.90;;;;;;;;;;5051376;28;20210;-82
2022/10/27 14:39:54;;;;;;;7.20;3.10;;;;;;;;;;5056460;28;20199;-81
2022/10/27 14:42:22;;;;;;;10.07;3.30;;;;;;;;;;5056001;28;20294;-80
2022/10/27 14:44:53;;;;;;;6.53;3.33;;;;;;;;;;5054047;28;20190;-81
2022/10/27 14:47:19;;;;;;;9.97;3.17;;;;;;;;;;5055074;28;20300;-81
2022/10/27 14:49:47;;;;;;;6.53;2.93;;;;;;;;;;5054534;28;20206;-81
2022/10/27 14:52:28;;;;;;;8.13;3.37;;;;;;;;;;5066658;28;20179;-81
2022/10/27 14:54:55;;;;;;;8.33;3.17;;;;;;;;;;5072728;28;20194;-81